sensor_id;sensor_type;location;lat;lon;timestamp;P1;durP1;ratioP1;P2;durP2;ratioP2
80637;SDS011;69991;51.760;19.528;2023-05-25T00:00:49;19.30;;;10.90;;
80637;SDS011;69991;51.760;19.528;2023-05-25T00:03:32;17.00;;;9.90;;
80637;SDS011;69991;51.760;19.528;2023-05-25T00:06:01;16.80;;;9.60;;
80637;SDS011;69991;51.760;19.528;2023-05-25T00:08:30;21.80;;;11.60;;
80637;SDS011;69991;51.760;19.528;2023-05-25T00:11:00;19.30;;;11.20;;
80637;SDS011;69991;51.760;19.528;2023-05-25T00:13:29;20.10;;;12.00;;
80637;SDS011;69991;51.760;19.528;2023-05-25T00:15:58;20.80;;;11.70;;
80637;SDS011;69991;51.760;19.528;2023-05-25T00:18:27;18.50;;;11.90;;
80637;SDS011;69991;51.760;19.528;2023-05-25T00:20:56;18.30;;;11.60;;
80637;SDS011;69991;51.760;19.528;2023-05-25T00:23:26;20.60;;;11.60;;
80637;SDS011;69991;51.760;19.528;2023-05-25T00:25:55;18.50;;;11.20;;
80637;SDS011;69991;51.760;19.528;2023-05-25T00:28:24;18.30;;;10.70;;
80637;SDS011;69991;51.760;19.528;2023-05-25T00:30:53;19.50;;;11.40;;
80637;SDS011;69991;51.760;19.528;2023-05-25T00:33:22;17.20;;;10.60;;
80637;SDS011;69991;51.760;19.528;2023-05-25T00:35:52;20.40;;;11.40;;
80637;SDS011;69991;51.760;19.528;2023-05-25T00:38:22;23.10;;;11.60;;
80637;SDS011;69991;51.760;19.528;2023-05-25T00:40:55;18.50;;;9.80;;
80637;SDS011;69991;51.760;19.528;2023-05-25T00:43:24;18.50;;;10.90;;
80637;SDS011;69991;51.760;19.528;2023-05-25T00:45:53;18.40;;;10.20;;
80637;SDS011;69991;51.760;19.528;2023-05-25T00:48:27;17.60;;;10.60;;
80637;SDS011;69991;51.760;19.528;2023-05-25T00:50:56;22.60;;;12.90;;
80637;SDS011;69991;51.760;19.528;2023-05-25T00:53:27;19.40;;;10.50;;
80637;SDS011;69991;51.760;19.528;2023-05-25T00:56:13;19.00;;;10.50;;
80637;SDS011;69991;51.760;19.528;2023-05-25T00:58:43;18.10;;;10.70;;
80637;SDS011;69991;51.760;19.528;2023-05-25T01:01:14;18.60;;;10.20;;
80637;SDS011;69991;51.760;19.528;2023-05-25T01:03:45;14.90;;;8.10;;
80637;SDS011;69991;51.760;19.528;2023-05-25T01:06:21;15.10;;;8.90;;
80637;SDS011;69991;51.760;19.528;2023-05-25T01:08:53;18.30;;;10.70;;
80637;SDS011;69991;51.760;19.528;2023-05-25T01:11:31;18.70;;;9.40;;
80637;SDS011;69991;51.760;19.528;2023-05-25T01:14:04;16.10;;;8.70;;
80637;SDS011;69991;51.760;19.528;2023-05-25T01:16:34;18.00;;;9.40;;
80637;SDS011;69991;51.760;19.528;2023-05-25T01:19:05;15.50;;;9.20;;
80637;SDS011;69991;51.760;19.528;2023-05-25T01:27:13;20.10;;;10.40;;
80637;SDS011;69991;51.760;19.528;2023-05-25T01:29:46;16.40;;;8.80;;
80637;SDS011;69991;51.760;19.528;2023-05-25T01:32:16;16.00;;;8.80;;
80637;SDS011;69991;51.760;19.528;2023-05-25T01:34:46;18.30;;;9.70;;
80637;SDS011;69991;51.760;19.528;2023-05-25T01:37:17;18.50;;;9.40;;
80637;SDS011;69991;51.760;19.528;2023-05-25T01:39:47;22.90;;;11.70;;
80637;SDS011;69991;51.760;19.528;2023-05-25T01:42:16;19.30;;;9.80;;
80637;SDS011;69991;51.760;19.528;2023-05-25T01:44:45;16.60;;;9.10;;
80637;SDS011;69991;51.760;19.528;2023-05-25T01:52:44;17.60;;;8.70;;
80637;SDS011;69991;51.760;19.528;2023-05-25T01:55:17;16.90;;;8.90;;
80637;SDS011;69991;51.760;19.528;2023-05-25T01:57:48;19.00;;;9.80;;
80637;SDS011;69991;51.760;19.528;2023-05-25T02:00:18;19.30;;;9.70;;
80637;SDS011;69991;51.760;19.528;2023-05-25T02:02:49;18.50;;;8.60;;
80637;SDS011;69991;51.760;19.528;2023-05-25T02:05:19;19.10;;;9.40;;
80637;SDS011;69991;51.760;19.528;2023-05-25T02:07:49;16.60;;;8.60;;
80637;SDS011;69991;51.760;19.528;2023-05-25T02:10:18;18.10;;;9.30;;
80637;SDS011;69991;51.760;19.528;2023-05-25T02:12:47;18.50;;;9.70;;
80637;SDS011;69991;51.760;19.528;2023-05-25T02:15:16;16.50;;;8.70;;
80637;SDS011;69991;51.760;19.528;2023-05-25T02:17:46;19.30;;;9.20;;
80637;SDS011;69991;51.760;19.528;2023-05-25T02:20:16;19.40;;;9.20;;
80637;SDS011;69991;51.760;19.528;2023-05-25T02:22:45;20.90;;;10.70;;
80637;SDS011;69991;51.760;19.528;2023-05-25T02:25:14;20.90;;;10.40;;
80637;SDS011;69991;51.760;19.528;2023-05-25T02:27:44;22.20;;;10.00;;
80637;SDS011;69991;51.760;19.528;2023-05-25T02:30:13;20.10;;;10.80;;
80637;SDS011;69991;51.760;19.528;2023-05-25T02:32:43;19.20;;;9.40;;
80637;SDS011;69991;51.760;19.528;2023-05-25T02:35:13;22.20;;;9.80;;
80637;SDS011;69991;51.760;19.528;2023-05-25T02:37:41;18.30;;;9.30;;
80637;SDS011;69991;51.760;19.528;2023-05-25T02:40:11;19.90;;;9.40;;
80637;SDS011;69991;51.760;19.528;2023-05-25T02:42:41;20.20;;;9.80;;
80637;SDS011;69991;51.760;19.528;2023-05-25T02:45:10;16.70;;;8.10;;
80637;SDS011;69991;51.760;19.528;2023-05-25T02:47:39;18.30;;;9.40;;
80637;SDS011;69991;51.760;19.528;2023-05-25T02:50:09;22.70;;;11.70;;
80637;SDS011;69991;51.760;19.528;2023-05-25T02:52:38;18.00;;;8.20;;
80637;SDS011;69991;51.760;19.528;2023-05-25T02:55:08;20.10;;;9.50;;
80637;SDS011;69991;51.760;19.528;2023-05-25T02:57:46;20.40;;;10.40;;
80637;SDS011;69991;51.760;19.528;2023-05-25T03:00:15;16.90;;;8.60;;
80637;SDS011;69991;51.760;19.528;2023-05-25T03:02:44;20.70;;;8.50;;
80637;SDS011;69991;51.760;19.528;2023-05-25T03:05:17;19.70;;;9.10;;
80637;SDS011;69991;51.760;19.528;2023-05-25T03:07:46;20.80;;;10.40;;
80637;SDS011;69991;51.760;19.528;2023-05-25T03:10:15;16.10;;;7.60;;
80637;SDS011;69991;51.760;19.528;2023-05-25T03:12:44;17.20;;;8.40;;
80637;SDS011;69991;51.760;19.528;2023-05-25T03:15:14;18.70;;;8.80;;
80637;SDS011;69991;51.760;19.528;2023-05-25T03:17:43;21.50;;;10.40;;
80637;SDS011;69991;51.760;19.528;2023-05-25T03:20:13;18.50;;;8.70;;
80637;SDS011;69991;51.760;19.528;2023-05-25T03:22:44;17.60;;;9.00;;
80637;SDS011;69991;51.760;19.528;2023-05-25T03:25:14;19.30;;;9.00;;
80637;SDS011;69991;51.760;19.528;2023-05-25T03:27:43;19.50;;;9.20;;
80637;SDS011;69991;51.760;19.528;2023-05-25T03:30:13;19.30;;;8.20;;
80637;SDS011;69991;51.760;19.528;2023-05-25T03:32:42;19.60;;;8.80;;
80637;SDS011;69991;51.760;19.528;2023-05-25T03:35:11;19.20;;;8.30;;
80637;SDS011;69991;51.760;19.528;2023-05-25T03:37:40;20.20;;;9.90;;
80637;SDS011;69991;51.760;19.528;2023-05-25T03:40:10;13.70;;;6.10;;
80637;SDS011;69991;51.760;19.528;2023-05-25T03:42:39;12.60;;;6.00;;
80637;SDS011;69991;51.760;19.528;2023-05-25T03:45:09;15.70;;;7.90;;
80637;SDS011;69991;51.760;19.528;2023-05-25T03:47:38;14.60;;;7.60;;
80637;SDS011;69991;51.760;19.528;2023-05-25T03:50:07;20.00;;;9.20;;
80637;SDS011;69991;51.760;19.528;2023-05-25T03:52:37;17.60;;;7.90;;
80637;SDS011;69991;51.760;19.528;2023-05-25T03:55:06;17.30;;;8.00;;
80637;SDS011;69991;51.760;19.528;2023-05-25T03:57:35;17.90;;;9.10;;
80637;SDS011;69991;51.760;19.528;2023-05-25T04:00:05;16.40;;;7.60;;
80637;SDS011;69991;51.760;19.528;2023-05-25T04:02:35;16.10;;;8.80;;
80637;SDS011;69991;51.760;19.528;2023-05-25T04:05:05;19.40;;;9.00;;
80637;SDS011;69991;51.760;19.528;2023-05-25T04:07:35;14.70;;;6.90;;
80637;SDS011;69991;51.760;19.528;2023-05-25T04:10:05;16.90;;;7.80;;
80637;SDS011;69991;51.760;19.528;2023-05-25T04:12:35;13.30;;;6.50;;
80637;SDS011;69991;51.760;19.528;2023-05-25T04:15:05;18.20;;;8.90;;
80637;SDS011;69991;51.760;19.528;2023-05-25T04:17:37;20.00;;;8.90;;
80637;SDS011;69991;51.760;19.528;2023-05-25T04:20:07;17.80;;;8.20;;
80637;SDS011;69991;51.760;19.528;2023-05-25T04:22:37;20.10;;;9.60;;
80637;SDS011;69991;51.760;19.528;2023-05-25T04:25:06;20.50;;;9.40;;
80637;SDS011;69991;51.760;19.528;2023-05-25T04:27:36;21.90;;;10.00;;
80637;SDS011;69991;51.760;19.528;2023-05-25T04:30:06;22.70;;;11.00;;
80637;SDS011;69991;51.760;19.528;2023-05-25T04:32:36;18.00;;;9.80;;
80637;SDS011;69991;51.760;19.528;2023-05-25T04:35:06;21.90;;;9.40;;
80637;SDS011;69991;51.760;19.528;2023-05-25T04:37:35;20.20;;;9.60;;
80637;SDS011;69991;51.760;19.528;2023-05-25T04:40:05;22.30;;;10.60;;
80637;SDS011;69991;51.760;19.528;2023-05-25T04:42:42;17.40;;;8.00;;
80637;SDS011;69991;51.760;19.528;2023-05-25T04:45:11;23.20;;;10.80;;
80637;SDS011;69991;51.760;19.528;2023-05-25T04:47:45;18.80;;;10.20;;
80637;SDS011;69991;51.760;19.528;2023-05-25T04:50:15;19.30;;;9.60;;
80637;SDS011;69991;51.760;19.528;2023-05-25T04:52:44;21.60;;;10.90;;
80637;SDS011;69991;51.760;19.528;2023-05-25T04:55:13;20.20;;;10.50;;
80637;SDS011;69991;51.760;19.528;2023-05-25T04:57:43;19.70;;;10.50;;
80637;SDS011;69991;51.760;19.528;2023-05-25T05:00:12;20.20;;;9.40;;
80637;SDS011;69991;51.760;19.528;2023-05-25T05:02:42;23.10;;;10.30;;
80637;SDS011;69991;51.760;19.528;2023-05-25T05:05:12;23.30;;;11.40;;
80637;SDS011;69991;51.760;19.528;2023-05-25T05:07:41;20.70;;;10.60;;
80637;SDS011;69991;51.760;19.528;2023-05-25T05:10:10;18.50;;;10.20;;
80637;SDS011;69991;51.760;19.528;2023-05-25T05:12:39;18.60;;;10.50;;
80637;SDS011;69991;51.760;19.528;2023-05-25T05:15:08;21.90;;;11.00;;
80637;SDS011;69991;51.760;19.528;2023-05-25T05:17:38;20.60;;;10.60;;
80637;SDS011;69991;51.760;19.528;2023-05-25T05:20:07;19.90;;;10.60;;
80637;SDS011;69991;51.760;19.528;2023-05-25T05:22:37;15.30;;;8.30;;
80637;SDS011;69991;51.760;19.528;2023-05-25T05:25:07;21.30;;;10.40;;
80637;SDS011;69991;51.760;19.528;2023-05-25T05:27:36;18.10;;;10.10;;
80637;SDS011;69991;51.760;19.528;2023-05-25T05:30:06;19.60;;;9.90;;
80637;SDS011;69991;51.760;19.528;2023-05-25T05:32:36;15.40;;;8.50;;
80637;SDS011;69991;51.760;19.528;2023-05-25T05:35:05;19.60;;;10.70;;
80637;SDS011;69991;51.760;19.528;2023-05-25T05:37:35;21.80;;;11.70;;
80637;SDS011;69991;51.760;19.528;2023-05-25T05:40:05;19.70;;;10.40;;
80637;SDS011;69991;51.760;19.528;2023-05-25T05:42:35;19.10;;;10.40;;
80637;SDS011;69991;51.760;19.528;2023-05-25T05:45:04;21.30;;;11.60;;
80637;SDS011;69991;51.760;19.528;2023-05-25T05:47:34;18.80;;;10.90;;
80637;SDS011;69991;51.760;19.528;2023-05-25T05:50:04;19.10;;;10.70;;
80637;SDS011;69991;51.760;19.528;2023-05-25T05:52:34;17.20;;;10.20;;
80637;SDS011;69991;51.760;19.528;2023-05-25T05:55:03;16.70;;;9.90;;
80637;SDS011;69991;51.760;19.528;2023-05-25T05:57:32;14.90;;;8.60;;
80637;SDS011;69991;51.760;19.528;2023-05-25T06:00:01;16.90;;;9.70;;
80637;SDS011;69991;51.760;19.528;2023-05-25T06:02:34;17.00;;;10.10;;
80637;SDS011;69991;51.760;19.528;2023-05-25T06:05:06;19.10;;;10.00;;
80637;SDS011;69991;51.760;19.528;2023-05-25T06:07:35;18.90;;;10.50;;
80637;SDS011;69991;51.760;19.528;2023-05-25T06:10:06;16.50;;;9.10;;
80637;SDS011;69991;51.760;19.528;2023-05-25T06:12:36;20.60;;;10.80;;
80637;SDS011;69991;51.760;19.528;2023-05-25T06:15:05;18.30;;;10.50;;
80637;SDS011;69991;51.760;19.528;2023-05-25T06:17:35;18.70;;;11.10;;
80637;SDS011;69991;51.760;19.528;2023-05-25T06:20:05;19.80;;;11.60;;
80637;SDS011;69991;51.760;19.528;2023-05-25T06:22:35;20.80;;;11.40;;
80637;SDS011;69991;51.760;19.528;2023-05-25T06:25:05;16.50;;;9.90;;
80637;SDS011;69991;51.760;19.528;2023-05-25T06:27:35;16.30;;;9.70;;
80637;SDS011;69991;51.760;19.528;2023-05-25T06:30:05;16.00;;;9.30;;
80637;SDS011;69991;51.760;19.528;2023-05-25T06:32:34;17.30;;;10.30;;
80637;SDS011;69991;51.760;19.528;2023-05-25T06:35:04;18.00;;;10.30;;
80637;SDS011;69991;51.760;19.528;2023-05-25T06:37:35;14.30;;;9.10;;
80637;SDS011;69991;51.760;19.528;2023-05-25T06:40:06;12.20;;;7.40;;
80637;SDS011;69991;51.760;19.528;2023-05-25T06:42:39;17.50;;;10.80;;
80637;SDS011;69991;51.760;19.528;2023-05-25T06:45:08;14.90;;;9.60;;
80637;SDS011;69991;51.760;19.528;2023-05-25T06:47:38;13.80;;;9.00;;
80637;SDS011;69991;51.760;19.528;2023-05-25T06:50:07;15.80;;;10.00;;
80637;SDS011;69991;51.760;19.528;2023-05-25T06:52:37;14.60;;;9.50;;
80637;SDS011;69991;51.760;19.528;2023-05-25T06:55:06;15.10;;;9.70;;
80637;SDS011;69991;51.760;19.528;2023-05-25T06:57:37;15.50;;;8.50;;
80637;SDS011;69991;51.760;19.528;2023-05-25T07:00:06;11.70;;;5.30;;
80637;SDS011;69991;51.760;19.528;2023-05-25T07:02:40;14.10;;;9.30;;
80637;SDS011;69991;51.760;19.528;2023-05-25T07:05:09;18.40;;;10.90;;
80637;SDS011;69991;51.760;19.528;2023-05-25T07:07:39;15.60;;;9.40;;
80637;SDS011;69991;51.760;19.528;2023-05-25T07:10:08;18.60;;;10.90;;
80637;SDS011;69991;51.760;19.528;2023-05-25T07:12:37;14.60;;;9.20;;
80637;SDS011;69991;51.760;19.528;2023-05-25T07:15:07;15.40;;;10.20;;
80637;SDS011;69991;51.760;19.528;2023-05-25T07:17:36;13.90;;;9.30;;
80637;SDS011;69991;51.760;19.528;2023-05-25T07:20:06;13.60;;;8.60;;
80637;SDS011;69991;51.760;19.528;2023-05-25T07:22:36;30.80;;;9.50;;
80637;SDS011;69991;51.760;19.528;2023-05-25T07:25:05;15.00;;;9.70;;
80637;SDS011;69991;51.760;19.528;2023-05-25T07:27:35;19.70;;;10.70;;
80637;SDS011;69991;51.760;19.528;2023-05-25T07:30:05;17.40;;;11.30;;
80637;SDS011;69991;51.760;19.528;2023-05-25T07:32:35;18.00;;;10.10;;
80637;SDS011;69991;51.760;19.528;2023-05-25T07:35:06;12.10;;;8.40;;
80637;SDS011;69991;51.760;19.528;2023-05-25T07:37:36;11.10;;;6.40;;
80637;SDS011;69991;51.760;19.528;2023-05-25T07:40:05;11.70;;;8.00;;
80637;SDS011;69991;51.760;19.528;2023-05-25T07:42:35;13.10;;;8.40;;
80637;SDS011;69991;51.760;19.528;2023-05-25T07:45:04;16.60;;;9.70;;
80637;SDS011;69991;51.760;19.528;2023-05-25T07:47:34;12.00;;;8.40;;
80637;SDS011;69991;51.760;19.528;2023-05-25T07:50:04;12.10;;;7.90;;
80637;SDS011;69991;51.760;19.528;2023-05-25T07:52:34;10.80;;;8.00;;
80637;SDS011;69991;51.760;19.528;2023-05-25T07:55:04;12.20;;;8.80;;
80637;SDS011;69991;51.760;19.528;2023-05-25T07:57:34;12.30;;;8.50;;
80637;SDS011;69991;51.760;19.528;2023-05-25T08:00:04;15.20;;;9.30;;
80637;SDS011;69991;51.760;19.528;2023-05-25T08:02:36;14.30;;;8.90;;
80637;SDS011;69991;51.760;19.528;2023-05-25T08:05:06;13.70;;;10.60;;
80637;SDS011;69991;51.760;19.528;2023-05-25T08:07:35;14.50;;;9.30;;
80637;SDS011;69991;51.760;19.528;2023-05-25T08:10:06;13.00;;;9.00;;
80637;SDS011;69991;51.760;19.528;2023-05-25T08:12:37;13.30;;;9.30;;
80637;SDS011;69991;51.760;19.528;2023-05-25T08:15:17;19.00;;;9.00;;
80637;SDS011;69991;51.760;19.528;2023-05-25T08:17:46;12.50;;;8.90;;
80637;SDS011;69991;51.760;19.528;2023-05-25T08:20:18;12.20;;;8.60;;
80637;SDS011;69991;51.760;19.528;2023-05-25T08:22:48;14.20;;;9.20;;
80637;SDS011;69991;51.760;19.528;2023-05-25T08:25:21;14.30;;;9.60;;
80637;SDS011;69991;51.760;19.528;2023-05-25T08:27:50;14.00;;;9.60;;
80637;SDS011;69991;51.760;19.528;2023-05-25T08:30:20;13.60;;;9.20;;
80637;SDS011;69991;51.760;19.528;2023-05-25T08:32:49;11.70;;;7.80;;
80637;SDS011;69991;51.760;19.528;2023-05-25T08:35:18;16.50;;;9.40;;
80637;SDS011;69991;51.760;19.528;2023-05-25T08:37:48;12.00;;;9.00;;
80637;SDS011;69991;51.760;19.528;2023-05-25T08:40:17;13.20;;;9.40;;
80637;SDS011;69991;51.760;19.528;2023-05-25T08:42:47;17.40;;;10.20;;
80637;SDS011;69991;51.760;19.528;2023-05-25T08:45:16;14.00;;;9.10;;
80637;SDS011;69991;51.760;19.528;2023-05-25T08:48:03;13.30;;;9.40;;
80637;SDS011;69991;51.760;19.528;2023-05-25T08:50:37;14.30;;;10.00;;
80637;SDS011;69991;51.760;19.528;2023-05-25T08:53:06;11.20;;;8.10;;
80637;SDS011;69991;51.760;19.528;2023-05-25T08:55:36;12.50;;;8.40;;
80637;SDS011;69991;51.760;19.528;2023-05-25T09:00:47;13.30;;;8.40;;
80637;SDS011;69991;51.760;19.528;2023-05-25T09:03:21;11.10;;;8.60;;
80637;SDS011;69991;51.760;19.528;2023-05-25T09:05:50;11.40;;;8.00;;
80637;SDS011;69991;51.760;19.528;2023-05-25T09:08:19;13.80;;;8.80;;
80637;SDS011;69991;51.760;19.528;2023-05-25T09:10:49;14.60;;;9.40;;
80637;SDS011;69991;51.760;19.528;2023-05-25T09:13:19;13.90;;;9.80;;
80637;SDS011;69991;51.760;19.528;2023-05-25T09:15:50;12.20;;;8.90;;
80637;SDS011;69991;51.760;19.528;2023-05-25T09:18:20;11.80;;;8.60;;
80637;SDS011;69991;51.760;19.528;2023-05-25T09:20:49;12.90;;;9.00;;
80637;SDS011;69991;51.760;19.528;2023-05-25T09:23:19;12.60;;;8.90;;
80637;SDS011;69991;51.760;19.528;2023-05-25T09:25:48;14.20;;;9.90;;
80637;SDS011;69991;51.760;19.528;2023-05-25T09:28:19;16.50;;;10.00;;
80637;SDS011;69991;51.760;19.528;2023-05-25T09:30:52;12.00;;;9.30;;
80637;SDS011;69991;51.760;19.528;2023-05-25T09:33:21;14.00;;;9.90;;
80637;SDS011;69991;51.760;19.528;2023-05-25T09:35:50;11.90;;;8.70;;
80637;SDS011;69991;51.760;19.528;2023-05-25T09:38:19;11.30;;;8.60;;
80637;SDS011;69991;51.760;19.528;2023-05-25T09:40:49;11.10;;;7.80;;
80637;SDS011;69991;51.760;19.528;2023-05-25T09:43:18;13.00;;;9.60;;
80637;SDS011;69991;51.760;19.528;2023-05-25T09:46:08;13.40;;;9.30;;
80637;SDS011;69991;51.760;19.528;2023-05-25T09:48:38;10.70;;;7.80;;
80637;SDS011;69991;51.760;19.528;2023-05-25T09:51:07;12.70;;;9.20;;
80637;SDS011;69991;51.760;19.528;2023-05-25T09:53:37;12.20;;;9.00;;
80637;SDS011;69991;51.760;19.528;2023-05-25T09:56:06;15.80;;;10.70;;
80637;SDS011;69991;51.760;19.528;2023-05-25T09:58:35;13.20;;;9.40;;
80637;SDS011;69991;51.760;19.528;2023-05-25T10:01:04;10.90;;;9.00;;
80637;SDS011;69991;51.760;19.528;2023-05-25T10:03:34;11.50;;;9.20;;
80637;SDS011;69991;51.760;19.528;2023-05-25T10:06:03;13.90;;;9.80;;
80637;SDS011;69991;51.760;19.528;2023-05-25T10:08:33;10.00;;;7.50;;
80637;SDS011;69991;51.760;19.528;2023-05-25T10:11:02;16.60;;;9.50;;
80637;SDS011;69991;51.760;19.528;2023-05-25T10:13:32;13.20;;;8.90;;
80637;SDS011;69991;51.760;19.528;2023-05-25T10:16:01;11.30;;;8.40;;
80637;SDS011;69991;51.760;19.528;2023-05-25T10:18:32;15.60;;;10.00;;
80637;SDS011;69991;51.760;19.528;2023-05-25T10:21:04;13.30;;;10.70;;
80637;SDS011;69991;51.760;19.528;2023-05-25T10:23:37;12.90;;;9.80;;
80637;SDS011;69991;51.760;19.528;2023-05-25T10:26:10;10.70;;;8.30;;
80637;SDS011;69991;51.760;19.528;2023-05-25T10:28:43;12.80;;;9.40;;
80637;SDS011;69991;51.760;19.528;2023-05-25T10:31:13;11.40;;;8.90;;
80637;SDS011;69991;51.760;19.528;2023-05-25T10:33:44;12.90;;;9.00;;
80637;SDS011;69991;51.760;19.528;2023-05-25T10:36:19;12.20;;;9.30;;
80637;SDS011;69991;51.760;19.528;2023-05-25T10:38:49;13.20;;;9.30;;
80637;SDS011;69991;51.760;19.528;2023-05-25T10:41:19;9.50;;;7.00;;
80637;SDS011;69991;51.760;19.528;2023-05-25T10:43:49;10.90;;;8.30;;
80637;SDS011;69991;51.760;19.528;2023-05-25T10:46:19;11.60;;;9.10;;
80637;SDS011;69991;51.760;19.528;2023-05-25T10:48:49;12.00;;;9.40;;
80637;SDS011;69991;51.760;19.528;2023-05-25T10:51:19;11.70;;;8.80;;
80637;SDS011;69991;51.760;19.528;2023-05-25T10:53:57;11.80;;;9.80;;
80637;SDS011;69991;51.760;19.528;2023-05-25T10:56:27;12.80;;;10.70;;
80637;SDS011;69991;51.760;19.528;2023-05-25T10:58:56;10.80;;;8.10;;
80637;SDS011;69991;51.760;19.528;2023-05-25T11:01:26;11.30;;;9.60;;
80637;SDS011;69991;51.760;19.528;2023-05-25T11:03:56;11.40;;;8.70;;
80637;SDS011;69991;51.760;19.528;2023-05-25T11:09:05;12.10;;;9.40;;
80637;SDS011;69991;51.760;19.528;2023-05-25T11:22:20;11.20;;;8.60;;
80637;SDS011;69991;51.760;19.528;2023-05-25T11:28:05;13.10;;;8.00;;
80637;SDS011;69991;51.760;19.528;2023-05-25T11:30:35;11.00;;;8.30;;
80637;SDS011;69991;51.760;19.528;2023-05-25T11:33:04;11.00;;;9.00;;
80637;SDS011;69991;51.760;19.528;2023-05-25T11:35:35;9.20;;;6.70;;
80637;SDS011;69991;51.760;19.528;2023-05-25T11:38:05;11.10;;;8.10;;
80637;SDS011;69991;51.760;19.528;2023-05-25T11:40:35;10.80;;;8.20;;
80637;SDS011;69991;51.760;19.528;2023-05-25T11:43:08;11.30;;;8.40;;
80637;SDS011;69991;51.760;19.528;2023-05-25T11:45:38;11.50;;;7.70;;
80637;SDS011;69991;51.760;19.528;2023-05-25T11:48:11;10.60;;;8.20;;
80637;SDS011;69991;51.760;19.528;2023-05-25T11:50:41;10.10;;;7.90;;
80637;SDS011;69991;51.760;19.528;2023-05-25T11:53:11;9.80;;;8.00;;
80637;SDS011;69991;51.760;19.528;2023-05-25T11:55:40;10.00;;;7.20;;
80637;SDS011;69991;51.760;19.528;2023-05-25T11:58:11;10.40;;;7.50;;
80637;SDS011;69991;51.760;19.528;2023-05-25T12:00:40;9.70;;;7.20;;
80637;SDS011;69991;51.760;19.528;2023-05-25T12:03:26;10.80;;;7.10;;
80637;SDS011;69991;51.760;19.528;2023-05-25T12:05:57;11.10;;;7.50;;
80637;SDS011;69991;51.760;19.528;2023-05-25T12:08:32;11.80;;;8.10;;
80637;SDS011;69991;51.760;19.528;2023-05-25T12:11:02;11.90;;;8.10;;
80637;SDS011;69991;51.760;19.528;2023-05-25T12:13:31;10.30;;;7.80;;
80637;SDS011;69991;51.760;19.528;2023-05-25T12:16:00;11.50;;;7.40;;
80637;SDS011;69991;51.760;19.528;2023-05-25T12:18:30;9.30;;;6.50;;
80637;SDS011;69991;51.760;19.528;2023-05-25T12:20:59;10.00;;;7.50;;
80637;SDS011;69991;51.760;19.528;2023-05-25T12:23:29;8.80;;;7.10;;
80637;SDS011;69991;51.760;19.528;2023-05-25T12:26:07;8.90;;;6.90;;
80637;SDS011;69991;51.760;19.528;2023-05-25T12:28:38;8.70;;;6.20;;
80637;SDS011;69991;51.760;19.528;2023-05-25T12:31:23;9.50;;;7.00;;
80637;SDS011;69991;51.760;19.528;2023-05-25T12:34:01;10.30;;;7.00;;
80637;SDS011;69991;51.760;19.528;2023-05-25T12:39:09;11.30;;;8.30;;
80637;SDS011;69991;51.760;19.528;2023-05-25T12:41:47;8.80;;;6.70;;
80637;SDS011;69991;51.760;19.528;2023-05-25T12:44:25;9.90;;;6.90;;
80637;SDS011;69991;51.760;19.528;2023-05-25T12:49:45;12.10;;;7.40;;
80637;SDS011;69991;51.760;19.528;2023-05-25T12:57:58;10.40;;;7.40;;
80637;SDS011;69991;51.760;19.528;2023-05-25T13:00:34;11.40;;;7.50;;
80637;SDS011;69991;51.760;19.528;2023-05-25T13:03:04;9.00;;;7.00;;
80637;SDS011;69991;51.760;19.528;2023-05-25T13:05:37;8.10;;;6.10;;
80637;SDS011;69991;51.760;19.528;2023-05-25T13:08:06;8.00;;;6.30;;
80637;SDS011;69991;51.760;19.528;2023-05-25T13:10:35;8.60;;;6.70;;
80637;SDS011;69991;51.760;19.528;2023-05-25T13:13:05;9.60;;;7.10;;
80637;SDS011;69991;51.760;19.528;2023-05-25T13:15:34;9.30;;;6.70;;
80637;SDS011;69991;51.760;19.528;2023-05-25T13:18:03;8.60;;;7.10;;
80637;SDS011;69991;51.760;19.528;2023-05-25T13:20:33;10.20;;;6.80;;
80637;SDS011;69991;51.760;19.528;2023-05-25T13:23:02;8.90;;;6.60;;
80637;SDS011;69991;51.760;19.528;2023-05-25T13:25:33;8.90;;;7.10;;
80637;SDS011;69991;51.760;19.528;2023-05-25T13:28:02;7.60;;;6.60;;
80637;SDS011;69991;51.760;19.528;2023-05-25T13:33:02;7.60;;;6.60;;
80637;SDS011;69991;51.760;19.528;2023-05-25T13:35:32;9.80;;;7.40;;
80637;SDS011;69991;51.760;19.528;2023-05-25T13:38:26;9.30;;;7.10;;
80637;SDS011;69991;51.760;19.528;2023-05-25T13:40:57;10.60;;;6.80;;
80637;SDS011;69991;51.760;19.528;2023-05-25T13:43:26;9.20;;;6.90;;
80637;SDS011;69991;51.760;19.528;2023-05-25T13:45:55;7.80;;;6.60;;
80637;SDS011;69991;51.760;19.528;2023-05-25T13:48:26;8.50;;;6.90;;
80637;SDS011;69991;51.760;19.528;2023-05-25T13:50:57;8.00;;;6.10;;
80637;SDS011;69991;51.760;19.528;2023-05-25T13:53:27;7.20;;;5.70;;
80637;SDS011;69991;51.760;19.528;2023-05-25T13:55:56;9.40;;;6.50;;
80637;SDS011;69991;51.760;19.528;2023-05-25T13:58:25;10.00;;;6.90;;
80637;SDS011;69991;51.760;19.528;2023-05-25T14:00:55;9.00;;;6.70;;
80637;SDS011;69991;51.760;19.528;2023-05-25T14:03:24;8.60;;;6.30;;
80637;SDS011;69991;51.760;19.528;2023-05-25T14:05:53;7.90;;;5.50;;
80637;SDS011;69991;51.760;19.528;2023-05-25T14:08:22;9.10;;;7.00;;
80637;SDS011;69991;51.760;19.528;2023-05-25T14:10:52;9.60;;;6.90;;
80637;SDS011;69991;51.760;19.528;2023-05-25T14:13:21;12.50;;;6.30;;
80637;SDS011;69991;51.760;19.528;2023-05-25T14:15:50;9.70;;;7.10;;
80637;SDS011;69991;51.760;19.528;2023-05-25T14:18:19;8.80;;;6.50;;
80637;SDS011;69991;51.760;19.528;2023-05-25T14:20:49;10.40;;;7.60;;
80637;SDS011;69991;51.760;19.528;2023-05-25T14:23:18;9.60;;;7.00;;
80637;SDS011;69991;51.760;19.528;2023-05-25T14:25:48;11.10;;;7.30;;
80637;SDS011;69991;51.760;19.528;2023-05-25T14:28:17;9.80;;;6.90;;
80637;SDS011;69991;51.760;19.528;2023-05-25T14:30:46;10.70;;;6.70;;
80637;SDS011;69991;51.760;19.528;2023-05-25T14:33:16;11.80;;;7.20;;
80637;SDS011;69991;51.760;19.528;2023-05-25T14:35:45;8.70;;;6.50;;
80637;SDS011;69991;51.760;19.528;2023-05-25T14:38:14;9.20;;;6.50;;
80637;SDS011;69991;51.760;19.528;2023-05-25T14:40:43;9.10;;;6.60;;
80637;SDS011;69991;51.760;19.528;2023-05-25T14:43:12;10.40;;;7.10;;
80637;SDS011;69991;51.760;19.528;2023-05-25T14:45:42;9.00;;;5.80;;
80637;SDS011;69991;51.760;19.528;2023-05-25T14:48:11;7.80;;;6.00;;
80637;SDS011;69991;51.760;19.528;2023-05-25T14:50:44;8.30;;;5.90;;
80637;SDS011;69991;51.760;19.528;2023-05-25T14:53:13;8.10;;;5.70;;
80637;SDS011;69991;51.760;19.528;2023-05-25T14:55:43;8.50;;;6.20;;
80637;SDS011;69991;51.760;19.528;2023-05-25T14:58:13;8.60;;;6.00;;
80637;SDS011;69991;51.760;19.528;2023-05-25T15:00:42;9.40;;;6.40;;
80637;SDS011;69991;51.760;19.528;2023-05-25T15:03:11;8.30;;;5.90;;
80637;SDS011;69991;51.760;19.528;2023-05-25T15:05:40;8.80;;;6.50;;
80637;SDS011;69991;51.760;19.528;2023-05-25T15:08:10;8.40;;;6.30;;
80637;SDS011;69991;51.760;19.528;2023-05-25T15:10:39;7.80;;;6.00;;
80637;SDS011;69991;51.760;19.528;2023-05-25T15:13:08;8.60;;;6.50;;
80637;SDS011;69991;51.760;19.528;2023-05-25T15:15:40;11.10;;;6.90;;
80637;SDS011;69991;51.760;19.528;2023-05-25T15:18:10;9.20;;;6.60;;
80637;SDS011;69991;51.760;19.528;2023-05-25T15:20:39;10.10;;;6.00;;
80637;SDS011;69991;51.760;19.528;2023-05-25T15:23:08;8.40;;;5.50;;